sensor_id;sensor_type;location;lat;lon;timestamp;pressure;altitude;pressure_sealevel;temperature
12430;BMP280;6279;42.192;24.326;2023-12-22T00:00:08;97624.94;;;3.27
12430;BMP280;6279;42.192;24.326;2023-12-22T00:02:35;97614.34;;;3.30
12430;BMP280;6279;42.192;24.326;2023-12-22T00:05:01;97613.97;;;3.17
12430;BMP280;6279;42.192;24.326;2023-12-22T00:07:26;97611.78;;;3.22
12430;BMP280;6279;42.192;24.326;2023-12-22T00:09:51;97621.03;;;3.15
12430;BMP280;6279;42.192;24.326;2023-12-22T00:12:17;97613.97;;;3.09
12430;BMP280;6279;42.192;24.326;2023-12-22T00:14:42;97612.34;;;3.08
12430;BMP280;6279;42.192;24.326;2023-12-22T00:17:08;97612.53;;;3.07
12430;BMP280;6279;42.192;24.326;2023-12-22T00:19:33;97604.16;;;3.05
12430;BMP280;6279;42.192;24.326;2023-12-22T00:21:59;97613.00;;;3.10
12430;BMP280;6279;42.192;24.326;2023-12-22T00:24:24;97605.94;;;3.12
12430;BMP280;6279;42.192;24.326;2023-12-22T00:26:50;97599.78;;;2.98
12430;BMP280;6279;42.192;24.326;2023-12-22T00:29:15;97597.72;;;3.01
12430;BMP280;6279;42.192;24.326;2023-12-22T00:31:41;97602.66;;;2.95
12430;BMP280;6279;42.192;24.326;2023-12-22T00:34:06;97593.97;;;2.88
12430;BMP280;6279;42.192;24.326;2023-12-22T00:36:31;97592.41;;;2.95
12430;BMP280;6279;42.192;24.326;2023-12-22T00:38:57;97580.38;;;2.95
12430;BMP280;6279;42.192;24.326;2023-12-22T00:41:22;97586.94;;;2.98
12430;BMP280;6279;42.192;24.326;2023-12-22T00:43:47;97588.78;;;3.13
12430;BMP280;6279;42.192;24.326;2023-12-22T00:46:13;97589.59;;;3.21
12430;BMP280;6279;42.192;24.326;2023-12-22T00:48:38;97581.25;;;3.19
12430;BMP280;6279;42.192;24.326;2023-12-22T00:51:05;97584.47;;;3.21
12430;BMP280;6279;42.192;24.326;2023-12-22T00:53:32;97577.75;;;3.36
12430;BMP280;6279;42.192;24.326;2023-12-22T00:55:57;97563.03;;;3.53
12430;BMP280;6279;42.192;24.326;2023-12-22T00:58:22;97558.53;;;3.55
12430;BMP280;6279;42.192;24.326;2023-12-22T01:00:48;97567.53;;;3.75
12430;BMP280;6279;42.192;24.326;2023-12-22T01:03:13;97573.50;;;3.83
12430;BMP280;6279;42.192;24.326;2023-12-22T01:05:39;97561.78;;;3.89
12430;BMP280;6279;42.192;24.326;2023-12-22T01:08:04;97565.81;;;3.99
12430;BMP280;6279;42.192;24.326;2023-12-22T01:10:30;97558.41;;;4.04
12430;BMP280;6279;42.192;24.326;2023-12-22T01:12:55;97563.06;;;4.00
12430;BMP280;6279;42.192;24.326;2023-12-22T01:15:20;97576.41;;;4.04
12430;BMP280;6279;42.192;24.326;2023-12-22T01:17:46;97563.38;;;3.90
12430;BMP280;6279;42.192;24.326;2023-12-22T01:20:11;97553.09;;;3.82
12430;BMP280;6279;42.192;24.326;2023-12-22T01:22:37;97553.09;;;3.58
12430;BMP280;6279;42.192;24.326;2023-12-22T01:25:04;97542.31;;;3.47
12430;BMP280;6279;42.192;24.326;2023-12-22T01:27:30;97538.13;;;3.46
12430;BMP280;6279;42.192;24.326;2023-12-22T01:29:56;97538.75;;;3.25
12430;BMP280;6279;42.192;24.326;2023-12-22T01:32:21;97550.09;;;3.06
12430;BMP280;6279;42.192;24.326;2023-12-22T01:34:47;97543.53;;;3.12
12430;BMP280;6279;42.192;24.326;2023-12-22T01:37:12;97536.63;;;3.20
12430;BMP280;6279;42.192;24.326;2023-12-22T01:39:37;97540.19;;;3.27
12430;BMP280;6279;42.192;24.326;2023-12-22T01:42:03;97529.91;;;3.35
12430;BMP280;6279;42.192;24.326;2023-12-22T01:44:32;97519.50;;;3.28
12430;BMP280;6279;42.192;24.326;2023-12-22T01:46:57;97527.03;;;3.38
12430;BMP280;6279;42.192;24.326;2023-12-22T01:49:23;97519.19;;;3.47
12430;BMP280;6279;42.192;24.326;2023-12-22T01:51:51;97508.59;;;3.42
12430;BMP280;6279;42.192;24.326;2023-12-22T01:54:17;97504.91;;;3.45
12430;BMP280;6279;42.192;24.326;2023-12-22T01:56:43;97510.84;;;3.45
12430;BMP280;6279;42.192;24.326;2023-12-22T01:59:09;97497.81;;;3.54
12430;BMP280;6279;42.192;24.326;2023-12-22T02:01:35;97491.09;;;3.61
12430;BMP280;6279;42.192;24.326;2023-12-22T02:04:02;97490.44;;;3.51
12430;BMP280;6279;42.192;24.326;2023-12-22T02:06:30;97479.69;;;3.64
12430;BMP280;6279;42.192;24.326;2023-12-22T02:08:56;97476.00;;;3.66
12430;BMP280;6279;42.192;24.326;2023-12-22T02:11:22;97466.53;;;3.67
12430;BMP280;6279;42.192;24.326;2023-12-22T02:13:48;97474.72;;;3.62
12430;BMP280;6279;42.192;24.326;2023-12-22T02:16:22;97478.06;;;3.71
12430;BMP280;6279;42.192;24.326;2023-12-22T02:18:52;97480.66;;;3.78
12430;BMP280;6279;42.192;24.326;2023-12-22T02:21:20;97470.03;;;3.89
12430;BMP280;6279;42.192;24.326;2023-12-22T02:23:47;97454.16;;;3.70
12430;BMP280;6279;42.192;24.326;2023-12-22T02:26:19;97470.38;;;3.63
12430;BMP280;6279;42.192;24.326;2023-12-22T02:28:47;97469.22;;;3.73
12430;BMP280;6279;42.192;24.326;2023-12-22T02:31:33;97475.00;;;3.91
12430;BMP280;6279;42.192;24.326;2023-12-22T02:34:01;97472.13;;;3.93
12430;BMP280;6279;42.192;24.326;2023-12-22T02:36:28;97487.06;;;3.82
12430;BMP280;6279;42.192;24.326;2023-12-22T02:38:56;97487.38;;;3.87
12430;BMP280;6279;42.192;24.326;2023-12-22T02:41:22;97490.59;;;3.97
12430;BMP280;6279;42.192;24.326;2023-12-22T02:43:47;97485.78;;;3.94
12430;BMP280;6279;42.192;24.326;2023-12-22T02:46:16;97478.53;;;3.97
12430;BMP280;6279;42.192;24.326;2023-12-22T02:48:41;97461.81;;;4.01
12430;BMP280;6279;42.192;24.326;2023-12-22T02:51:07;97463.75;;;3.99
12430;BMP280;6279;42.192;24.326;2023-12-22T02:53:32;97459.56;;;3.98
12430;BMP280;6279;42.192;24.326;2023-12-22T02:55:58;97445.09;;;4.13
12430;BMP280;6279;42.192;24.326;2023-12-22T02:58:23;97448.91;;;4.17
12430;BMP280;6279;42.192;24.326;2023-12-22T03:00:48;97461.44;;;4.20
12430;BMP280;6279;42.192;24.326;2023-12-22T03:03:14;97465.91;;;4.34
12430;BMP280;6279;42.192;24.326;2023-12-22T03:05:39;97468.13;;;4.44
12430;BMP280;6279;42.192;24.326;2023-12-22T03:08:05;97461.00;;;4.54
12430;BMP280;6279;42.192;24.326;2023-12-22T03:10:30;97444.94;;;4.52
12430;BMP280;6279;42.192;24.326;2023-12-22T03:12:56;97439.16;;;4.50
12430;BMP280;6279;42.192;24.326;2023-12-22T03:15:21;97441.13;;;4.40
12430;BMP280;6279;42.192;24.326;2023-12-22T03:17:46;97434.50;;;4.46
12430;BMP280;6279;42.192;24.326;2023-12-22T03:20:12;97444.78;;;4.46
12430;BMP280;6279;42.192;24.326;2023-12-22T03:22:37;97432.72;;;4.46
12430;BMP280;6279;42.192;24.326;2023-12-22T03:25:03;97432.25;;;4.51
12430;BMP280;6279;42.192;24.326;2023-12-22T03:27:28;97426.53;;;4.63
12430;BMP280;6279;42.192;24.326;2023-12-22T03:29:54;97427.50;;;4.70
12430;BMP280;6279;42.192;24.326;2023-12-22T03:32:19;97433.22;;;4.80
12430;BMP280;6279;42.192;24.326;2023-12-22T03:34:45;97437.19;;;4.90
12430;BMP280;6279;42.192;24.326;2023-12-22T03:37:10;97430.94;;;4.84
12430;BMP280;6279;42.192;24.326;2023-12-22T03:39:35;97437.72;;;4.78
12430;BMP280;6279;42.192;24.326;2023-12-22T03:42:01;97445.84;;;4.67
12430;BMP280;6279;42.192;24.326;2023-12-22T03:44:26;97447.00;;;4.57
12430;BMP280;6279;42.192;24.326;2023-12-22T03:46:52;97449.84;;;4.24
12430;BMP280;6279;42.192;24.326;2023-12-22T03:49:17;97461.78;;;4.09
12430;BMP280;6279;42.192;24.326;2023-12-22T03:51:44;97454.06;;;4.09
12430;BMP280;6279;42.192;24.326;2023-12-22T03:54:10;97457.63;;;4.00
12430;BMP280;6279;42.192;24.326;2023-12-22T03:56:35;97462.63;;;4.02
12430;BMP280;6279;42.192;24.326;2023-12-22T03:59:00;97443.63;;;4.18
12430;BMP280;6279;42.192;24.326;2023-12-22T04:01:26;97436.44;;;3.98
12430;BMP280;6279;42.192;24.326;2023-12-22T04:03:51;97424.84;;;4.02
12430;BMP280;6279;42.192;24.326;2023-12-22T04:06:16;97416.47;;;4.08
12430;BMP280;6279;42.192;24.326;2023-12-22T04:08:42;97425.78;;;4.09
12430;BMP280;6279;42.192;24.326;2023-12-22T04:11:07;97429.94;;;4.18
12430;BMP280;6279;42.192;24.326;2023-12-22T04:13:33;97423.16;;;4.25
12430;BMP280;6279;42.192;24.326;2023-12-22T04:15:58;97422.31;;;4.40
12430;BMP280;6279;42.192;24.326;2023-12-22T04:18:23;97421.50;;;4.47
12430;BMP280;6279;42.192;24.326;2023-12-22T04:20:49;97415.31;;;4.56
12430;BMP280;6279;42.192;24.326;2023-12-22T04:23:18;97420.81;;;4.53
12430;BMP280;6279;42.192;24.326;2023-12-22T04:25:44;97409.25;;;4.49
12430;BMP280;6279;42.192;24.326;2023-12-22T04:28:09;97406.69;;;4.49
12430;BMP280;6279;42.192;24.326;2023-12-22T04:30:34;97406.34;;;4.44
12430;BMP280;6279;42.192;24.326;2023-12-22T04:33:00;97399.88;;;4.56
12430;BMP280;6279;42.192;24.326;2023-12-22T04:35:26;97406.97;;;4.54
12430;BMP280;6279;42.192;24.326;2023-12-22T04:37:51;97403.88;;;4.58
12430;BMP280;6279;42.192;24.326;2023-12-22T04:40:16;97393.25;;;4.61
12430;BMP280;6279;42.192;24.326;2023-12-22T04:42:42;97399.19;;;4.62
12430;BMP280;6279;42.192;24.326;2023-12-22T04:45:07;97398.38;;;4.69
12430;BMP280;6279;42.192;24.326;2023-12-22T04:47:33;97387.34;;;4.83
12430;BMP280;6279;42.192;24.326;2023-12-22T04:49:58;97396.19;;;4.80
12430;BMP280;6279;42.192;24.326;2023-12-22T04:52:23;97379.09;;;4.87
12430;BMP280;6279;42.192;24.326;2023-12-22T04:54:49;97395.44;;;5.02
12430;BMP280;6279;42.192;24.326;2023-12-22T04:57:14;97382.19;;;5.05
12430;BMP280;6279;42.192;24.326;2023-12-22T04:59:40;97385.75;;;5.04
12430;BMP280;6279;42.192;24.326;2023-12-22T05:02:05;97393.06;;;4.93
12430;BMP280;6279;42.192;24.326;2023-12-22T05:04:32;97394.84;;;4.92
12430;BMP280;6279;42.192;24.326;2023-12-22T05:06:57;97386.56;;;5.04
12430;BMP280;6279;42.192;24.326;2023-12-22T05:09:23;97389.41;;;5.09
12430;BMP280;6279;42.192;24.326;2023-12-22T05:11:50;97376.25;;;5.04
12430;BMP280;6279;42.192;24.326;2023-12-22T05:14:15;97372.69;;;4.83
12430;BMP280;6279;42.192;24.326;2023-12-22T05:16:41;97376.47;;;4.95
12430;BMP280;6279;42.192;24.326;2023-12-22T05:19:06;97383.91;;;4.90
12430;BMP280;6279;42.192;24.326;2023-12-22T05:21:32;97361.00;;;4.95
12430;BMP280;6279;42.192;24.326;2023-12-22T05:23:57;97357.06;;;5.07
12430;BMP280;6279;42.192;24.326;2023-12-22T05:26:24;97366.41;;;5.08
12430;BMP280;6279;42.192;24.326;2023-12-22T05:28:50;97380.25;;;5.07
12430;BMP280;6279;42.192;24.326;2023-12-22T05:31:16;97379.66;;;4.97
12430;BMP280;6279;42.192;24.326;2023-12-22T05:33:42;97391.66;;;4.82
12430;BMP280;6279;42.192;24.326;2023-12-22T05:36:08;97397.97;;;4.80
12430;BMP280;6279;42.192;24.326;2023-12-22T05:38:37;97378.16;;;4.80
12430;BMP280;6279;42.192;24.326;2023-12-22T05:41:03;97381.53;;;4.81
12430;BMP280;6279;42.192;24.326;2023-12-22T05:43:28;97393.88;;;4.93
12430;BMP280;6279;42.192;24.326;2023-12-22T05:45:54;97386.38;;;5.06
12430;BMP280;6279;42.192;24.326;2023-12-22T05:48:19;97383.09;;;5.12
12430;BMP280;6279;42.192;24.326;2023-12-22T05:50:47;97385.16;;;5.16
12430;BMP280;6279;42.192;24.326;2023-12-22T05:53:12;97394.38;;;5.11
12430;BMP280;6279;42.192;24.326;2023-12-22T05:55:38;97387.41;;;4.97
12430;BMP280;6279;42.192;24.326;2023-12-22T05:58:03;97387.75;;;4.94
12430;BMP280;6279;42.192;24.326;2023-12-22T06:00:29;97376.00;;;4.92
12430;BMP280;6279;42.192;24.326;2023-12-22T06:02:54;97375.22;;;4.91
12430;BMP280;6279;42.192;24.326;2023-12-22T06:05:19;97380.09;;;4.86
12430;BMP280;6279;42.192;24.326;2023-12-22T06:07:45;97385.66;;;4.68
12430;BMP280;6279;42.192;24.326;2023-12-22T06:10:10;97368.66;;;4.81
12430;BMP280;6279;42.192;24.326;2023-12-22T06:12:36;97379.44;;;4.84
12430;BMP280;6279;42.192;24.326;2023-12-22T06:15:01;97387.47;;;4.89
12430;BMP280;6279;42.192;24.326;2023-12-22T06:17:27;97392.97;;;4.86
12430;BMP280;6279;42.192;24.326;2023-12-22T06:19:52;97393.69;;;4.95
12430;BMP280;6279;42.192;24.326;2023-12-22T06:22:18;97392.50;;;5.05
12430;BMP280;6279;42.192;24.326;2023-12-22T06:24:43;97392.06;;;4.72
12430;BMP280;6279;42.192;24.326;2023-12-22T06:27:09;97397.50;;;4.77
12430;BMP280;6279;42.192;24.326;2023-12-22T06:29:35;97407.34;;;4.73
12430;BMP280;6279;42.192;24.326;2023-12-22T06:32:00;97403.75;;;4.52
12430;BMP280;6279;42.192;24.326;2023-12-22T06:34:26;97400.31;;;4.67
12430;BMP280;6279;42.192;24.326;2023-12-22T06:36:51;97392.44;;;4.61
12430;BMP280;6279;42.192;24.326;2023-12-22T06:39:17;97394.66;;;4.72
12430;BMP280;6279;42.192;24.326;2023-12-22T06:41:42;97391.00;;;4.88
12430;BMP280;6279;42.192;24.326;2023-12-22T06:44:08;97377.09;;;4.97
12430;BMP280;6279;42.192;24.326;2023-12-22T06:46:35;97391.53;;;5.06
12430;BMP280;6279;42.192;24.326;2023-12-22T06:49:01;97387.72;;;5.16
12430;BMP280;6279;42.192;24.326;2023-12-22T06:51:28;97386.75;;;5.17
12430;BMP280;6279;42.192;24.326;2023-12-22T06:53:56;97402.00;;;5.04
12430;BMP280;6279;42.192;24.326;2023-12-22T06:56:23;97408.53;;;5.15
12430;BMP280;6279;42.192;24.326;2023-12-22T06:58:50;97386.25;;;5.22
12430;BMP280;6279;42.192;24.326;2023-12-22T07:01:29;97400.28;;;4.97
12430;BMP280;6279;42.192;24.326;2023-12-22T07:03:55;97408.16;;;4.96
12430;BMP280;6279;42.192;24.326;2023-12-22T07:06:22;97411.84;;;5.01
12430;BMP280;6279;42.192;24.326;2023-12-22T07:11:40;97443.56;;;5.24
12430;BMP280;6279;42.192;24.326;2023-12-22T07:14:08;97424.22;;;5.27
12430;BMP280;6279;42.192;24.326;2023-12-22T07:16:35;97414.09;;;5.26
12430;BMP280;6279;42.192;24.326;2023-12-22T07:19:01;97402.22;;;5.39
12430;BMP280;6279;42.192;24.326;2023-12-22T07:21:26;97415.72;;;5.41
12430;BMP280;6279;42.192;24.326;2023-12-22T07:23:52;97407.56;;;5.38
12430;BMP280;6279;42.192;24.326;2023-12-22T07:26:17;97409.19;;;5.31
12430;BMP280;6279;42.192;24.326;2023-12-22T07:28:43;97401.91;;;5.20
12430;BMP280;6279;42.192;24.326;2023-12-22T07:31:09;97394.16;;;5.20
12430;BMP280;6279;42.192;24.326;2023-12-22T07:33:35;97386.88;;;5.24
12430;BMP280;6279;42.192;24.326;2023-12-22T07:36:00;97390.22;;;5.10
12430;BMP280;6279;42.192;24.326;2023-12-22T07:38:26;97390.66;;;5.13
12430;BMP280;6279;42.192;24.326;2023-12-22T07:40:51;97386.75;;;5.39
12430;BMP280;6279;42.192;24.326;2023-12-22T07:43:16;97386.72;;;5.61
12430;BMP280;6279;42.192;24.326;2023-12-22T07:45:42;97384.03;;;5.91
12430;BMP280;6279;42.192;24.326;2023-12-22T07:48:07;97386.16;;;6.16
12430;BMP280;6279;42.192;24.326;2023-12-22T07:50:33;97386.53;;;6.27
12430;BMP280;6279;42.192;24.326;2023-12-22T07:52:58;97390.97;;;6.47
12430;BMP280;6279;42.192;24.326;2023-12-22T07:55:24;97376.75;;;6.72
12430;BMP280;6279;42.192;24.326;2023-12-22T07:57:49;97376.34;;;7.09
12430;BMP280;6279;42.192;24.326;2023-12-22T08:00:16;97381.28;;;7.25
12430;BMP280;6279;42.192;24.326;2023-12-22T08:02:42;97388.56;;;7.63
12430;BMP280;6279;42.192;24.326;2023-12-22T08:05:08;97394.44;;;7.77
12430;BMP280;6279;42.192;24.326;2023-12-22T08:07:33;97395.56;;;7.95
12430;BMP280;6279;42.192;24.326;2023-12-22T08:09:59;97386.88;;;8.30
12430;BMP280;6279;42.192;24.326;2023-12-22T08:12:24;97392.44;;;8.33
12430;BMP280;6279;42.192;24.326;2023-12-22T08:14:49;97396.94;;;8.58
12430;BMP280;6279;42.192;24.326;2023-12-22T08:17:15;97399.09;;;8.94
12430;BMP280;6279;42.192;24.326;2023-12-22T08:19:40;97388.00;;;9.25
12430;BMP280;6279;42.192;24.326;2023-12-22T08:22:09;97391.00;;;9.35
12430;BMP280;6279;42.192;24.326;2023-12-22T08:24:35;97392.38;;;9.19
12430;BMP280;6279;42.192;24.326;2023-12-22T08:27:00;97409.41;;;8.81
12430;BMP280;6279;42.192;24.326;2023-12-22T08:29:27;97410.56;;;8.66
12430;BMP280;6279;42.192;24.326;2023-12-22T08:31:52;97408.47;;;8.16
12430;BMP280;6279;42.192;24.326;2023-12-22T08:34:18;97403.16;;;8.24
12430;BMP280;6279;42.192;24.326;2023-12-22T08:36:44;97401.78;;;8.28
12430;BMP280;6279;42.192;24.326;2023-12-22T08:39:09;97398.22;;;8.29
12430;BMP280;6279;42.192;24.326;2023-12-22T08:41:35;97398.81;;;8.31
12430;BMP280;6279;42.192;24.326;2023-12-22T08:44:02;97399.22;;;8.34
12430;BMP280;6279;42.192;24.326;2023-12-22T08:46:28;97391.66;;;8.32
12430;BMP280;6279;42.192;24.326;2023-12-22T08:48:53;97389.28;;;8.37
12430;BMP280;6279;42.192;24.326;2023-12-22T08:51:18;97388.47;;;8.37
12430;BMP280;6279;42.192;24.326;2023-12-22T08:53:44;97392.44;;;8.27
12430;BMP280;6279;42.192;24.326;2023-12-22T08:56:09;97385.03;;;8.24
12430;BMP280;6279;42.192;24.326;2023-12-22T08:58:35;97374.91;;;8.29
12430;BMP280;6279;42.192;24.326;2023-12-22T09:01:00;97379.69;;;8.32
12430;BMP280;6279;42.192;24.326;2023-12-22T09:03:25;97381.88;;;8.28
12430;BMP280;6279;42.192;24.326;2023-12-22T09:05:52;97389.28;;;8.37
12430;BMP280;6279;42.192;24.326;2023-12-22T09:08:18;97389.28;;;8.37
12430;BMP280;6279;42.192;24.326;2023-12-22T09:10:43;97385.94;;;8.43
12430;BMP280;6279;42.192;24.326;2023-12-22T09:13:10;97382.56;;;8.49
12430;BMP280;6279;42.192;24.326;2023-12-22T09:15:36;97381.94;;;8.41
12430;BMP280;6279;42.192;24.326;2023-12-22T09:18:02;97389.53;;;8.42
12430;BMP280;6279;42.192;24.326;2023-12-22T09:20:28;97385.34;;;8.41
12430;BMP280;6279;42.192;24.326;2023-12-22T09:22:55;97391.69;;;8.39
12430;BMP280;6279;42.192;24.326;2023-12-22T09:25:23;97385.63;;;8.59
12430;BMP280;6279;42.192;24.326;2023-12-22T09:27:48;97383.06;;;8.72
12430;BMP280;6279;42.192;24.326;2023-12-22T09:30:14;97387.09;;;8.80
12430;BMP280;6279;42.192;24.326;2023-12-22T09:32:39;97379.53;;;8.85
12430;BMP280;6279;42.192;24.326;2023-12-22T09:35:05;97380.34;;;8.92
12430;BMP280;6279;42.192;24.326;2023-12-22T09:37:30;97386.53;;;8.98
12430;BMP280;6279;42.192;24.326;2023-12-22T09:39:56;97383.16;;;9.03
12430;BMP280;6279;42.192;24.326;2023-12-22T09:42:25;97379.38;;;9.06
12430;BMP280;6279;42.192;24.326;2023-12-22T09:44:53;97366.00;;;9.09
12430;BMP280;6279;42.192;24.326;2023-12-22T09:47:19;97368.03;;;9.13
12430;BMP280;6279;42.192;24.326;2023-12-22T09:49:45;97370.44;;;9.15
12430;BMP280;6279;42.192;24.326;2023-12-22T09:52:12;97373.03;;;9.21
12430;BMP280;6279;42.192;24.326;2023-12-22T09:54:39;97376.06;;;9.31
12430;BMP280;6279;42.192;24.326;2023-12-22T09:57:05;97378.63;;;9.37
12430;BMP280;6279;42.192;24.326;2023-12-22T09:59:32;97388.00;;;9.44
12430;BMP280;6279;42.192;24.326;2023-12-22T10:01:59;97371.88;;;9.55
12430;BMP280;6279;42.192;24.326;2023-12-22T10:04:27;97389.22;;;9.55
12430;BMP280;6279;42.192;24.326;2023-12-22T10:06:53;97392.03;;;9.60
12430;BMP280;6279;42.192;24.326;2023-12-22T10:09:21;97392.63;;;9.62
12430;BMP280;6279;42.192;24.326;2023-12-22T10:11:49;97385.44;;;9.63
12430;BMP280;6279;42.192;24.326;2023-12-22T10:14:18;97385.06;;;9.66
12430;BMP280;6279;42.192;24.326;2023-12-22T10:16:49;97391.63;;;9.63
12430;BMP280;6279;42.192;24.326;2023-12-22T10:19:15;97377.84;;;9.43
12430;BMP280;6279;42.192;24.326;2023-12-22T10:21:40;97388.81;;;9.45
12430;BMP280;6279;42.192;24.326;2023-12-22T10:24:05;97391.84;;;9.48
12430;BMP280;6279;42.192;24.326;2023-12-22T10:26:31;97385.78;;;9.29
12430;BMP280;6279;42.192;24.326;2023-12-22T10:28:56;97388.88;;;8.80
12430;BMP280;6279;42.192;24.326;2023-12-22T10:31:22;97373.75;;;8.83
12430;BMP280;6279;42.192;24.326;2023-12-22T10:33:47;97387.28;;;8.79
12430;BMP280;6279;42.192;24.326;2023-12-22T10:36:13;97386.50;;;8.91
12430;BMP280;6279;42.192;24.326;2023-12-22T10:38:39;97384.34;;;9.01
12430;BMP280;6279;42.192;24.326;2023-12-22T10:41:06;97381.97;;;9.06
12430;BMP280;6279;42.192;24.326;2023-12-22T10:43:39;97369.25;;;9.17
12430;BMP280;6279;42.192;24.326;2023-12-22T10:46:05;97369.84;;;9.38
12430;BMP280;6279;42.192;24.326;2023-12-22T10:48:31;97366.69;;;9.49
12430;BMP280;6279;42.192;24.326;2023-12-22T10:50:56;97366.47;;;9.57
12430;BMP280;6279;42.192;24.326;2023-12-22T10:53:21;97369.03;;;9.19
12430;BMP280;6279;42.192;24.326;2023-12-22T10:55:49;97356.81;;;8.94
12430;BMP280;6279;42.192;24.326;2023-12-22T10:58:16;97338.53;;;9.14
12430;BMP280;6279;42.192;24.326;2023-12-22T11:00:44;97328.94;;;9.02
12430;BMP280;6279;42.192;24.326;2023-12-22T11:03:13;97317.53;;;8.90
12430;BMP280;6279;42.192;24.326;2023-12-22T11:05:44;97299.78;;;8.87
12430;BMP280;6279;42.192;24.326;2023-12-22T11:08:11;97304.19;;;9.06
12430;BMP280;6279;42.192;24.326;2023-12-22T11:10:41;97295.44;;;9.45
12430;BMP280;6279;42.192;24.326;2023-12-22T11:13:12;97277.25;;;9.70
12430;BMP280;6279;42.192;24.326;2023-12-22T11:15:39;97263.75;;;10.24
12430;BMP280;6279;42.192;24.326;2023-12-22T11:18:06;97269.84;;;10.79
12430;BMP280;6279;42.192;24.326;2023-12-22T11:20:33;97280.91;;;11.29
12430;BMP280;6279;42.192;24.326;2023-12-22T11:23:00;97284.06;;;11.96
12430;BMP280;6279;42.192;24.326;2023-12-22T11:25:26;97272.06;;;12.30
12430;BMP280;6279;42.192;24.326;2023-12-22T11:27:52;97263.47;;;12.76
12430;BMP280;6279;42.192;24.326;2023-12-22T11:30:22;97265.47;;;13.03
12430;BMP280;6279;42.192;24.326;2023-12-22T11:32:49;97265.28;;;13.16
12430;BMP280;6279;42.192;24.326;2023-12-22T11:35:14;97272.56;;;13.14
12430;BMP280;6279;42.192;24.326;2023-12-22T11:37:42;97260.63;;;13.07
12430;BMP280;6279;42.192;24.326;2023-12-22T11:40:08;97242.78;;;13.04
12430;BMP280;6279;42.192;24.326;2023-12-22T11:42:36;97240.75;;;12.94
12430;BMP280;6279;42.192;24.326;2023-12-22T11:45:04;97234.38;;;13.02
12430;BMP280;6279;42.192;24.326;2023-12-22T11:47:30;97223.66;;;13.10
12430;BMP280;6279;42.192;24.326;2023-12-22T11:49:55;97223.00;;;13.25
12430;BMP280;6279;42.192;24.326;2023-12-22T11:52:26;97209.25;;;13.30
12430;BMP280;6279;42.192;24.326;2023-12-22T11:54:54;97209.72;;;13.27
12430;BMP280;6279;42.192;24.326;2023-12-22T11:57:40;97205.94;;;13.23
12430;BMP280;6279;42.192;24.326;2023-12-22T12:00:37;97221.81;;;13.21
12430;BMP280;6279;42.192;24.326;2023-12-22T12:03:06;97214.47;;;13.07
12430;BMP280;6279;42.192;24.326;2023-12-22T12:05:32;97219.72;;;12.78
12430;BMP280;6279;42.192;24.326;2023-12-22T12:08:06;97212.00;;;12.83
12430;BMP280;6279;42.192;24.326;2023-12-22T12:13:11;97208.97;;;12.97
12430;BMP280;6279;42.192;24.326;2023-12-22T12:15:37;97209.66;;;13.04
12430;BMP280;6279;42.192;24.326;2023-12-22T12:18:04;97206.25;;;13.04
12430;BMP280;6279;42.192;24.326;2023-12-22T12:20:30;97216.13;;;13.02
12430;BMP280;6279;42.192;24.326;2023-12-22T12:22:55;97211.69;;;12.91
12430;BMP280;6279;42.192;24.326;2023-12-22T12:25:28;97225.03;;;12.72
12430;BMP280;6279;42.192;24.326;2023-12-22T12:28:04;97246.47;;;12.56
12430;BMP280;6279;42.192;24.326;2023-12-22T12:30:31;97262.50;;;12.42
12430;BMP280;6279;42.192;24.326;2023-12-22T12:32:59;97258.47;;;12.28
12430;BMP280;6279;42.192;24.326;2023-12-22T12:35:31;97257.63;;;12.17
12430;BMP280;6279;42.192;24.326;2023-12-22T12:37:58;97265.50;;;12.10
12430;BMP280;6279;42.192;24.326;2023-12-22T12:40:24;97263.31;;;12.07
12430;BMP280;6279;42.192;24.326;2023-12-22T12:42:50;97259.13;;;12.06
12430;BMP280;6279;42.192;24.326;2023-12-22T12:45:21;97267.25;;;11.99
12430;BMP280;6279;42.192;24.326;2023-12-22T12:48:02;97266.16;;;11.88
12430;BMP280;6279;42.192;24.326;2023-12-22T12:50:28;97258.41;;;11.82
12430;BMP280;6279;42.192;24.326;2023-12-22T12:52:55;97266.28;;;12.11
12430;BMP280;6279;42.192;24.326;2023-12-22T12:55:22;97263.53;;;12.24
12430;BMP280;6279;42.192;24.326;2023-12-22T12:57:51;97275.47;;;12.13
12430;BMP280;6279;42.192;24.326;2023-12-22T13:00:30;97281.47;;;12.14
12430;BMP280;6279;42.192;24.326;2023-12-22T13:02:59;97275.47;;;12.13
12430;BMP280;6279;42.192;24.326;2023-12-22T13:05:25;97256.03;;;12.16
12430;BMP280;6279;42.192;24.326;2023-12-22T13:07:51;97265.56;;;12.04
12430;BMP280;6279;42.192;24.326;2023-12-22T13:10:23;97262.53;;;12.07
12430;BMP280;6279;42.192;24.326;2023-12-22T13:12:50;97268.44;;;11.96
12430;BMP280;6279;42.192;24.326;2023-12-22T13:15:16;97273.00;;;11.83
12430;BMP280;6279;42.192;24.326;2023-12-22T13:17:41;97274.38;;;11.68
12430;BMP280;6279;42.192;24.326;2023-12-22T13:20:07;97265.06;;;11.54
12430;BMP280;6279;42.192;24.326;2023-12-22T13:22:33;97277.47;;;11.35
12430;BMP280;6279;42.192;24.326;2023-12-22T13:24:59;97271.41;;;11.40
12430;BMP280;6279;42.192;24.326;2023-12-22T13:27:24;97275.88;;;11.34
12430;BMP280;6279;42.192;24.326;2023-12-22T13:29:50;97283.66;;;11.58
12430;BMP280;6279;42.192;24.326;2023-12-22T13:32:21;97282.03;;;11.63
12430;BMP280;6279;42.192;24.326;2023-12-22T13:34:58;97284.78;;;11.68
12430;BMP280;6279;42.192;24.326;2023-12-22T13:37:24;97277.56;;;11.70
12430;BMP280;6279;42.192;24.326;2023-12-22T13:39:51;97286.06;;;11.59
12430;BMP280;6279;42.192;24.326;2023-12-22T13:42:17;97276.22;;;11.61
12430;BMP280;6279;42.192;24.326;2023-12-22T13:44:45;97281.84;;;11.58
12430;BMP280;6279;42.192;24.326;2023-12-22T13:47:18;97287.72;;;11.54
12430;BMP280;6279;42.192;24.326;2023-12-22T13:49:44;97299.00;;;11.41
12430;BMP280;6279;42.192;24.326;2023-12-22T13:52:27;97299.44;;;11.39
12430;BMP280;6279;42.192;24.326;2023-12-22T13:54:53;97316.97;;;11.49
12430;BMP280;6279;42.192;24.326;2023-12-22T13:57:21;97316.66;;;11.39
12430;BMP280;6279;42.192;24.326;2023-12-22T13:59:49;97311.94;;;11.24
12430;BMP280;6279;42.192;24.326;2023-12-22T14:02:15;97319.53;;;11.25
12430;BMP280;6279;42.192;24.326;2023-12-22T14:04:41;97325.25;;;11.10
12430;BMP280;6279;42.192;24.326;2023-12-22T14:07:06;97334.69;;;11.04
12430;BMP280;6279;42.192;24.326;2023-12-22T14:09:31;97348.75;;;10.97
12430;BMP280;6279;42.192;24.326;2023-12-22T14:11:59;97336.53;;;10.97
12430;BMP280;6279;42.192;24.326;2023-12-22T14:14:24;97358.34;;;10.96
12430;BMP280;6279;42.192;24.326;2023-12-22T14:16:49;97359.13;;;10.97
12430;BMP280;6279;42.192;24.326;2023-12-22T14:19:18;97356.97;;;10.88